Terminal Aerodrome Forecast
Issued by NWS

Home | Current Version | Previous Version | Graphics & Text | Print | Product List | Glossary On
Versions: 1 2 3 4 5 6 7 8 9 10 11 12 13 14 15 16 17 18 19 20 21
193
FTUS43 KFGF 082321
TAFBJI
TAF
KBJI 082321Z 0900/0924 31015G22KT P6SM BKN017
     FM090100 35018G27KT P6SM -SN BKN015
     FM090600 34015KT P6SM BKN015
     FM090900 32010KT P6SM BKN020
     FM091400 31008KT P6SM BKN035
     FM091900 27007KT P6SM BKN050
     FM092100 24008KT P6SM BKN060=

USA.gov is the U.S. government's official web portal to all federal, state and local government web resources and services.